sensor_id;sensor_type;location;lat;lon;timestamp;P1;durP1;ratioP1;P2;durP2;ratioP2
49722;SDS011;43484;43.608;1.458;2023-02-28T00:01:27;3.87;;;2.67;;
49722;SDS011;43484;43.608;1.458;2023-02-28T00:03:54;4.40;;;2.10;;
49722;SDS011;43484;43.608;1.458;2023-02-28T00:06:22;4.03;;;2.27;;
49722;SDS011;43484;43.608;1.458;2023-02-28T00:08:49;6.43;;;2.10;;
49722;SDS011;43484;43.608;1.458;2023-02-28T00:11:16;2.70;;;2.50;;
49722;SDS011;43484;43.608;1.458;2023-02-28T00:13:45;3.87;;;2.20;;
49722;SDS011;43484;43.608;1.458;2023-02-28T00:16:14;4.10;;;2.60;;
49722;SDS011;43484;43.608;1.458;2023-02-28T00:18:43;3.80;;;2.80;;
49722;SDS011;43484;43.608;1.458;2023-02-28T00:21:10;3.67;;;2.43;;
49722;SDS011;43484;43.608;1.458;2023-02-28T00:23:37;5.70;;;2.43;;
49722;SDS011;43484;43.608;1.458;2023-02-28T00:26:04;4.33;;;2.57;;
49722;SDS011;43484;43.608;1.458;2023-02-28T00:28:32;2.80;;;2.07;;
49722;SDS011;43484;43.608;1.458;2023-02-28T00:30:59;5.43;;;2.60;;
49722;SDS011;43484;43.608;1.458;2023-02-28T00:33:26;5.37;;;2.57;;
49722;SDS011;43484;43.608;1.458;2023-02-28T00:36:01;4.07;;;2.43;;
49722;SDS011;43484;43.608;1.458;2023-02-28T00:38:30;3.07;;;2.27;;
49722;SDS011;43484;43.608;1.458;2023-02-28T00:40:57;6.90;;;2.60;;
49722;SDS011;43484;43.608;1.458;2023-02-28T00:43:24;3.73;;;2.47;;
49722;SDS011;43484;43.608;1.458;2023-02-28T00:45:51;4.70;;;3.00;;
49722;SDS011;43484;43.608;1.458;2023-02-28T00:48:18;3.63;;;2.80;;
49722;SDS011;43484;43.608;1.458;2023-02-28T00:50:48;6.87;;;2.50;;
49722;SDS011;43484;43.608;1.458;2023-02-28T00:53:15;5.67;;;2.97;;
49722;SDS011;43484;43.608;1.458;2023-02-28T00:55:42;4.30;;;2.60;;
49722;SDS011;43484;43.608;1.458;2023-02-28T00:58:09;5.70;;;2.67;;
49722;SDS011;43484;43.608;1.458;2023-02-28T01:00:36;4.70;;;3.13;;
49722;SDS011;43484;43.608;1.458;2023-02-28T01:03:02;3.53;;;2.57;;
49722;SDS011;43484;43.608;1.458;2023-02-28T01:05:29;6.03;;;3.20;;
49722;SDS011;43484;43.608;1.458;2023-02-28T01:07:56;5.17;;;2.20;;
49722;SDS011;43484;43.608;1.458;2023-02-28T01:10:22;5.00;;;2.80;;
49722;SDS011;43484;43.608;1.458;2023-02-28T01:12:49;4.60;;;2.80;;
49722;SDS011;43484;43.608;1.458;2023-02-28T01:15:16;3.63;;;2.73;;
49722;SDS011;43484;43.608;1.458;2023-02-28T01:17:42;7.57;;;3.20;;
49722;SDS011;43484;43.608;1.458;2023-02-28T01:20:09;4.93;;;3.07;;
49722;SDS011;43484;43.608;1.458;2023-02-28T01:22:36;4.47;;;2.47;;
49722;SDS011;43484;43.608;1.458;2023-02-28T01:25:03;5.73;;;2.80;;
49722;SDS011;43484;43.608;1.458;2023-02-28T01:27:30;4.27;;;2.80;;
49722;SDS011;43484;43.608;1.458;2023-02-28T01:29:57;4.67;;;2.30;;
49722;SDS011;43484;43.608;1.458;2023-02-28T01:32:23;3.50;;;2.63;;
49722;SDS011;43484;43.608;1.458;2023-02-28T01:34:50;2.93;;;2.27;;
49722;SDS011;43484;43.608;1.458;2023-02-28T01:37:19;5.37;;;3.10;;
49722;SDS011;43484;43.608;1.458;2023-02-28T01:39:45;4.87;;;2.90;;
49722;SDS011;43484;43.608;1.458;2023-02-28T01:42:12;3.70;;;2.70;;
49722;SDS011;43484;43.608;1.458;2023-02-28T01:47:32;3.43;;;3.00;;
49722;SDS011;43484;43.608;1.458;2023-02-28T01:50:02;2.90;;;2.40;;
49722;SDS011;43484;43.608;1.458;2023-02-28T01:52:32;7.00;;;2.90;;
49722;SDS011;43484;43.608;1.458;2023-02-28T01:55:00;5.93;;;2.83;;
49722;SDS011;43484;43.608;1.458;2023-02-28T01:57:30;4.97;;;3.03;;
49722;SDS011;43484;43.608;1.458;2023-02-28T02:02:35;5.33;;;2.70;;
49722;SDS011;43484;43.608;1.458;2023-02-28T02:05:04;5.37;;;3.03;;
49722;SDS011;43484;43.608;1.458;2023-02-28T02:07:37;4.77;;;3.90;;
49722;SDS011;43484;43.608;1.458;2023-02-28T02:10:16;4.53;;;3.07;;
49722;SDS011;43484;43.608;1.458;2023-02-28T02:26:55;5.10;;;2.90;;
49722;SDS011;43484;43.608;1.458;2023-02-28T02:40:03;4.77;;;2.90;;
49722;SDS011;43484;43.608;1.458;2023-02-28T02:45:23;7.53;;;3.23;;
49722;SDS011;43484;43.608;1.458;2023-02-28T02:47:55;4.97;;;3.30;;
49722;SDS011;43484;43.608;1.458;2023-02-28T02:50:26;3.93;;;3.00;;
49722;SDS011;43484;43.608;1.458;2023-02-28T02:53:00;8.93;;;3.83;;
49722;SDS011;43484;43.608;1.458;2023-02-28T02:55:28;6.80;;;3.37;;
49722;SDS011;43484;43.608;1.458;2023-02-28T02:58:02;5.47;;;3.60;;
49722;SDS011;43484;43.608;1.458;2023-02-28T03:00:33;3.88;;;3.05;;
49722;SDS011;43484;43.608;1.458;2023-02-28T03:03:08;5.43;;;3.30;;
49722;SDS011;43484;43.608;1.458;2023-02-28T03:05:50;5.00;;;3.07;;
49722;SDS011;43484;43.608;1.458;2023-02-28T03:08:16;6.20;;;3.63;;
49722;SDS011;43484;43.608;1.458;2023-02-28T03:10:44;4.13;;;3.10;;
49722;SDS011;43484;43.608;1.458;2023-02-28T03:13:25;4.77;;;3.17;;
49722;SDS011;43484;43.608;1.458;2023-02-28T03:21:40;7.53;;;3.70;;
49722;SDS011;43484;43.608;1.458;2023-02-28T03:26:53;4.23;;;3.60;;
49722;SDS011;43484;43.608;1.458;2023-02-28T03:29:34;6.00;;;3.37;;
49722;SDS011;43484;43.608;1.458;2023-02-28T03:32:06;5.53;;;3.65;;
49722;SDS011;43484;43.608;1.458;2023-02-28T03:34:36;6.87;;;3.00;;
49722;SDS011;43484;43.608;1.458;2023-02-28T03:37:09;6.30;;;3.27;;
49722;SDS011;43484;43.608;1.458;2023-02-28T03:39:46;4.53;;;3.17;;
49722;SDS011;43484;43.608;1.458;2023-02-28T03:42:20;5.72;;;3.53;;
49722;SDS011;43484;43.608;1.458;2023-02-28T03:44:51;5.47;;;3.25;;
49722;SDS011;43484;43.608;1.458;2023-02-28T03:47:29;7.93;;;3.70;;
49722;SDS011;43484;43.608;1.458;2023-02-28T03:50:08;7.05;;;3.50;;
49722;SDS011;43484;43.608;1.458;2023-02-28T03:52:42;7.00;;;3.70;;
49722;SDS011;43484;43.608;1.458;2023-02-28T03:55:16;4.53;;;3.77;;
49722;SDS011;43484;43.608;1.458;2023-02-28T04:00:31;5.57;;;3.37;;
49722;SDS011;43484;43.608;1.458;2023-02-28T04:03:02;3.90;;;3.53;;
49722;SDS011;43484;43.608;1.458;2023-02-28T04:05:29;8.93;;;4.20;;
49722;SDS011;43484;43.608;1.458;2023-02-28T04:08:04;8.30;;;4.00;;
49722;SDS011;43484;43.608;1.458;2023-02-28T04:12:59;5.13;;;4.00;;
49722;SDS011;43484;43.608;1.458;2023-02-28T04:15:25;9.43;;;3.97;;
49722;SDS011;43484;43.608;1.458;2023-02-28T04:17:53;6.47;;;4.17;;
49722;SDS011;43484;43.608;1.458;2023-02-28T04:20:20;4.60;;;3.53;;
49722;SDS011;43484;43.608;1.458;2023-02-28T04:22:46;6.17;;;3.10;;
49722;SDS011;43484;43.608;1.458;2023-02-28T04:25:13;6.07;;;3.90;;
49722;SDS011;43484;43.608;1.458;2023-02-28T04:27:39;6.80;;;3.77;;
49722;SDS011;43484;43.608;1.458;2023-02-28T04:30:06;5.97;;;3.40;;
49722;SDS011;43484;43.608;1.458;2023-02-28T04:32:33;5.33;;;3.57;;
49722;SDS011;43484;43.608;1.458;2023-02-28T04:35:00;4.10;;;3.70;;
49722;SDS011;43484;43.608;1.458;2023-02-28T04:37:26;8.23;;;3.67;;
49722;SDS011;43484;43.608;1.458;2023-02-28T04:39:55;5.37;;;3.73;;
49722;SDS011;43484;43.608;1.458;2023-02-28T04:42:21;3.80;;;3.30;;
49722;SDS011;43484;43.608;1.458;2023-02-28T04:44:48;6.77;;;4.00;;
49722;SDS011;43484;43.608;1.458;2023-02-28T04:47:14;6.80;;;3.63;;
49722;SDS011;43484;43.608;1.458;2023-02-28T04:49:41;4.97;;;3.50;;
49722;SDS011;43484;43.608;1.458;2023-02-28T04:52:07;5.10;;;3.80;;
49722;SDS011;43484;43.608;1.458;2023-02-28T04:54:36;5.20;;;4.20;;
49722;SDS011;43484;43.608;1.458;2023-02-28T04:57:04;4.60;;;3.70;;
49722;SDS011;43484;43.608;1.458;2023-02-28T04:59:32;5.13;;;4.00;;
49722;SDS011;43484;43.608;1.458;2023-02-28T05:01:59;7.80;;;4.23;;
49722;SDS011;43484;43.608;1.458;2023-02-28T05:04:26;5.13;;;3.87;;
49722;SDS011;43484;43.608;1.458;2023-02-28T05:06:52;6.30;;;4.00;;
49722;SDS011;43484;43.608;1.458;2023-02-28T05:09:19;7.33;;;4.50;;
49722;SDS011;43484;43.608;1.458;2023-02-28T05:11:45;8.03;;;4.10;;
49722;SDS011;43484;43.608;1.458;2023-02-28T05:14:12;5.00;;;4.33;;
49722;SDS011;43484;43.608;1.458;2023-02-28T05:16:40;8.07;;;3.93;;
49722;SDS011;43484;43.608;1.458;2023-02-28T05:19:07;5.27;;;3.90;;
49722;SDS011;43484;43.608;1.458;2023-02-28T05:21:34;5.53;;;4.27;;
49722;SDS011;43484;43.608;1.458;2023-02-28T05:24:04;6.03;;;4.03;;
49722;SDS011;43484;43.608;1.458;2023-02-28T05:26:36;6.73;;;4.30;;
49722;SDS011;43484;43.608;1.458;2023-02-28T05:29:05;7.57;;;4.37;;
49722;SDS011;43484;43.608;1.458;2023-02-28T05:31:32;6.20;;;4.47;;
49722;SDS011;43484;43.608;1.458;2023-02-28T05:33:59;6.83;;;4.53;;
49722;SDS011;43484;43.608;1.458;2023-02-28T05:36:25;8.17;;;5.13;;
49722;SDS011;43484;43.608;1.458;2023-02-28T05:38:52;5.90;;;4.57;;
49722;SDS011;43484;43.608;1.458;2023-02-28T05:41:19;7.93;;;4.80;;
49722;SDS011;43484;43.608;1.458;2023-02-28T05:43:47;9.17;;;4.50;;
49722;SDS011;43484;43.608;1.458;2023-02-28T05:46:14;9.77;;;5.37;;
49722;SDS011;43484;43.608;1.458;2023-02-28T05:48:41;6.70;;;5.33;;
49722;SDS011;43484;43.608;1.458;2023-02-28T05:51:11;7.23;;;4.80;;
49722;SDS011;43484;43.608;1.458;2023-02-28T05:53:38;8.60;;;5.13;;
49722;SDS011;43484;43.608;1.458;2023-02-28T05:56:05;7.23;;;5.20;;
49722;SDS011;43484;43.608;1.458;2023-02-28T05:58:31;6.20;;;4.80;;
49722;SDS011;43484;43.608;1.458;2023-02-28T06:00:59;5.90;;;4.97;;
49722;SDS011;43484;43.608;1.458;2023-02-28T06:03:27;7.30;;;5.33;;
49722;SDS011;43484;43.608;1.458;2023-02-28T06:05:54;9.13;;;5.27;;
49722;SDS011;43484;43.608;1.458;2023-02-28T06:08:21;7.67;;;5.27;;
49722;SDS011;43484;43.608;1.458;2023-02-28T06:10:47;7.93;;;5.20;;
49722;SDS011;43484;43.608;1.458;2023-02-28T06:13:14;8.10;;;5.80;;
49722;SDS011;43484;43.608;1.458;2023-02-28T06:15:41;8.50;;;5.77;;
49722;SDS011;43484;43.608;1.458;2023-02-28T06:18:08;6.33;;;4.90;;
49722;SDS011;43484;43.608;1.458;2023-02-28T06:20:34;7.67;;;5.13;;
49722;SDS011;43484;43.608;1.458;2023-02-28T06:23:02;13.63;;;5.70;;
49722;SDS011;43484;43.608;1.458;2023-02-28T06:25:29;8.43;;;5.77;;
49722;SDS011;43484;43.608;1.458;2023-02-28T06:27:56;6.43;;;5.43;;
49722;SDS011;43484;43.608;1.458;2023-02-28T06:30:23;9.70;;;5.43;;
49722;SDS011;43484;43.608;1.458;2023-02-28T06:32:53;9.57;;;5.73;;
49722;SDS011;43484;43.608;1.458;2023-02-28T06:35:20;8.63;;;5.60;;
49722;SDS011;43484;43.608;1.458;2023-02-28T06:37:47;11.53;;;5.67;;
49722;SDS011;43484;43.608;1.458;2023-02-28T06:40:14;11.70;;;5.30;;
49722;SDS011;43484;43.608;1.458;2023-02-28T06:42:41;14.83;;;6.50;;
49722;SDS011;43484;43.608;1.458;2023-02-28T06:45:08;7.37;;;5.40;;
49722;SDS011;43484;43.608;1.458;2023-02-28T06:47:36;9.20;;;5.43;;
49722;SDS011;43484;43.608;1.458;2023-02-28T06:50:05;9.30;;;4.97;;
49722;SDS011;43484;43.608;1.458;2023-02-28T06:52:32;7.80;;;5.20;;
49722;SDS011;43484;43.608;1.458;2023-02-28T06:54:59;9.07;;;6.17;;
49722;SDS011;43484;43.608;1.458;2023-02-28T06:57:28;11.10;;;6.33;;
49722;SDS011;43484;43.608;1.458;2023-02-28T06:59:57;7.27;;;5.63;;
49722;SDS011;43484;43.608;1.458;2023-02-28T07:02:25;9.60;;;5.93;;
49722;SDS011;43484;43.608;1.458;2023-02-28T07:04:52;9.97;;;5.70;;
49722;SDS011;43484;43.608;1.458;2023-02-28T07:07:19;12.90;;;6.57;;
49722;SDS011;43484;43.608;1.458;2023-02-28T07:09:46;9.03;;;5.57;;
49722;SDS011;43484;43.608;1.458;2023-02-28T07:12:13;9.57;;;6.60;;
49722;SDS011;43484;43.608;1.458;2023-02-28T07:14:39;10.00;;;5.50;;
49722;SDS011;43484;43.608;1.458;2023-02-28T07:17:07;7.77;;;5.63;;
49722;SDS011;43484;43.608;1.458;2023-02-28T07:19:34;6.17;;;5.47;;
49722;SDS011;43484;43.608;1.458;2023-02-28T07:22:01;8.97;;;5.83;;
49722;SDS011;43484;43.608;1.458;2023-02-28T07:24:28;6.37;;;5.30;;
49722;SDS011;43484;43.608;1.458;2023-02-28T07:26:55;6.90;;;5.40;;
49722;SDS011;43484;43.608;1.458;2023-02-28T07:29:22;6.90;;;5.17;;
49722;SDS011;43484;43.608;1.458;2023-02-28T07:31:49;10.60;;;6.30;;
49722;SDS011;43484;43.608;1.458;2023-02-28T07:34:19;8.97;;;5.30;;
49722;SDS011;43484;43.608;1.458;2023-02-28T07:36:47;11.73;;;5.13;;
49722;SDS011;43484;43.608;1.458;2023-02-28T07:39:14;8.50;;;5.27;;
49722;SDS011;43484;43.608;1.458;2023-02-28T07:41:40;9.50;;;5.63;;
49722;SDS011;43484;43.608;1.458;2023-02-28T07:44:12;7.83;;;6.13;;
49722;SDS011;43484;43.608;1.458;2023-02-28T07:46:39;7.83;;;5.13;;
49722;SDS011;43484;43.608;1.458;2023-02-28T07:49:06;11.97;;;5.77;;
49722;SDS011;43484;43.608;1.458;2023-02-28T07:51:33;9.90;;;5.47;;
49722;SDS011;43484;43.608;1.458;2023-02-28T07:53:59;7.63;;;4.93;;
49722;SDS011;43484;43.608;1.458;2023-02-28T07:56:26;9.90;;;4.93;;
49722;SDS011;43484;43.608;1.458;2023-02-28T07:58:53;9.70;;;5.13;;
49722;SDS011;43484;43.608;1.458;2023-02-28T08:01:20;8.33;;;5.27;;
49722;SDS011;43484;43.608;1.458;2023-02-28T08:03:47;13.50;;;6.03;;
49722;SDS011;43484;43.608;1.458;2023-02-28T08:06:17;7.23;;;5.17;;
49722;SDS011;43484;43.608;1.458;2023-02-28T08:08:46;8.20;;;5.73;;
49722;SDS011;43484;43.608;1.458;2023-02-28T08:11:14;9.13;;;6.10;;
49722;SDS011;43484;43.608;1.458;2023-02-28T08:13:42;11.27;;;5.70;;
49722;SDS011;43484;43.608;1.458;2023-02-28T08:16:11;11.03;;;5.60;;
49722;SDS011;43484;43.608;1.458;2023-02-28T08:18:41;6.70;;;5.27;;
49722;SDS011;43484;43.608;1.458;2023-02-28T08:21:09;9.50;;;6.10;;
49722;SDS011;43484;43.608;1.458;2023-02-28T08:23:36;10.13;;;5.60;;
49722;SDS011;43484;43.608;1.458;2023-02-28T08:26:03;12.63;;;5.60;;
49722;SDS011;43484;43.608;1.458;2023-02-28T08:28:30;9.90;;;5.40;;
49722;SDS011;43484;43.608;1.458;2023-02-28T08:30:57;7.73;;;4.70;;
49722;SDS011;43484;43.608;1.458;2023-02-28T08:33:24;8.77;;;6.20;;
49722;SDS011;43484;43.608;1.458;2023-02-28T08:35:53;7.70;;;4.87;;
49722;SDS011;43484;43.608;1.458;2023-02-28T08:38:21;5.43;;;4.50;;
49722;SDS011;43484;43.608;1.458;2023-02-28T08:40:48;8.60;;;4.40;;
49722;SDS011;43484;43.608;1.458;2023-02-28T08:43:15;6.57;;;4.23;;
49722;SDS011;43484;43.608;1.458;2023-02-28T08:45:42;5.07;;;3.97;;
49722;SDS011;43484;43.608;1.458;2023-02-28T08:48:09;4.80;;;4.10;;
49722;SDS011;43484;43.608;1.458;2023-02-28T08:50:36;5.73;;;4.60;;
49722;SDS011;43484;43.608;1.458;2023-02-28T08:53:02;9.20;;;3.90;;
49722;SDS011;43484;43.608;1.458;2023-02-28T08:55:29;6.73;;;4.87;;
49722;SDS011;43484;43.608;1.458;2023-02-28T08:57:56;7.70;;;4.00;;
49722;SDS011;43484;43.608;1.458;2023-02-28T09:00:22;6.60;;;3.83;;
49722;SDS011;43484;43.608;1.458;2023-02-28T09:02:49;7.57;;;4.33;;
49722;SDS011;43484;43.608;1.458;2023-02-28T09:05:16;8.20;;;4.27;;
49722;SDS011;43484;43.608;1.458;2023-02-28T09:07:43;5.60;;;4.33;;
49722;SDS011;43484;43.608;1.458;2023-02-28T09:10:10;5.87;;;4.40;;
49722;SDS011;43484;43.608;1.458;2023-02-28T09:12:37;9.03;;;4.83;;
49722;SDS011;43484;43.608;1.458;2023-02-28T09:15:03;6.23;;;3.90;;
49722;SDS011;43484;43.608;1.458;2023-02-28T09:17:31;5.97;;;3.63;;
49722;SDS011;43484;43.608;1.458;2023-02-28T09:19:58;6.43;;;4.37;;
49722;SDS011;43484;43.608;1.458;2023-02-28T09:22:24;5.80;;;4.60;;
49722;SDS011;43484;43.608;1.458;2023-02-28T09:24:51;5.37;;;4.23;;
49722;SDS011;43484;43.608;1.458;2023-02-28T09:27:18;10.40;;;4.30;;
49722;SDS011;43484;43.608;1.458;2023-02-28T09:29:45;5.03;;;3.90;;
49722;SDS011;43484;43.608;1.458;2023-02-28T09:32:11;9.53;;;4.10;;
49722;SDS011;43484;43.608;1.458;2023-02-28T09:34:38;8.13;;;4.30;;
49722;SDS011;43484;43.608;1.458;2023-02-28T09:37:05;13.43;;;4.43;;
49722;SDS011;43484;43.608;1.458;2023-02-28T09:39:31;6.77;;;4.30;;
49722;SDS011;43484;43.608;1.458;2023-02-28T09:41:58;8.83;;;4.57;;
49722;SDS011;43484;43.608;1.458;2023-02-28T09:53:29;5.63;;;4.20;;
49722;SDS011;43484;43.608;1.458;2023-02-28T09:56:03;6.53;;;3.60;;
49722;SDS011;43484;43.608;1.458;2023-02-28T09:58:39;9.60;;;4.47;;
49722;SDS011;43484;43.608;1.458;2023-02-28T10:04:00;7.73;;;3.70;;
49722;SDS011;43484;43.608;1.458;2023-02-28T10:06:44;4.87;;;4.03;;
49722;SDS011;43484;43.608;1.458;2023-02-28T10:11:48;10.73;;;4.27;;
49722;SDS011;43484;43.608;1.458;2023-02-28T10:14:24;8.00;;;3.83;;
49722;SDS011;43484;43.608;1.458;2023-02-28T10:16:55;6.27;;;3.93;;
49722;SDS011;43484;43.608;1.458;2023-02-28T10:19:35;7.77;;;4.23;;
49722;SDS011;43484;43.608;1.458;2023-02-28T10:22:50;4.50;;;3.70;;
49722;SDS011;43484;43.608;1.458;2023-02-28T10:25:23;5.80;;;3.33;;
49722;SDS011;43484;43.608;1.458;2023-02-28T10:28:13;6.83;;;4.00;;
49722;SDS011;43484;43.608;1.458;2023-02-28T10:30:40;5.87;;;4.17;;
49722;SDS011;43484;43.608;1.458;2023-02-28T10:33:14;4.80;;;3.57;;
49722;SDS011;43484;43.608;1.458;2023-02-28T10:36:03;6.13;;;4.00;;
49722;SDS011;43484;43.608;1.458;2023-02-28T10:38:34;5.63;;;4.17;;
49722;SDS011;43484;43.608;1.458;2023-02-28T10:41:10;7.93;;;4.57;;
49722;SDS011;43484;43.608;1.458;2023-02-28T10:43:42;12.30;;;4.07;;
49722;SDS011;43484;43.608;1.458;2023-02-28T10:46:13;4.97;;;3.60;;
49722;SDS011;43484;43.608;1.458;2023-02-28T10:49:05;11.77;;;3.73;;
49722;SDS011;43484;43.608;1.458;2023-02-28T10:51:39;7.30;;;3.87;;
49722;SDS011;43484;43.608;1.458;2023-02-28T10:54:16;6.87;;;4.00;;
49722;SDS011;43484;43.608;1.458;2023-02-28T10:57:11;6.03;;;4.03;;
49722;SDS011;43484;43.608;1.458;2023-02-28T10:59:43;8.93;;;4.33;;
49722;SDS011;43484;43.608;1.458;2023-02-28T11:04:55;8.63;;;4.70;;
49722;SDS011;43484;43.608;1.458;2023-02-28T11:07:22;6.03;;;4.20;;
49722;SDS011;43484;43.608;1.458;2023-02-28T11:09:56;8.40;;;4.57;;
49722;SDS011;43484;43.608;1.458;2023-02-28T11:12:37;8.20;;;3.90;;
49722;SDS011;43484;43.608;1.458;2023-02-28T11:15:29;9.43;;;4.93;;
49722;SDS011;43484;43.608;1.458;2023-02-28T11:17:59;9.27;;;4.53;;
49722;SDS011;43484;43.608;1.458;2023-02-28T11:20:29;6.57;;;4.77;;
49722;SDS011;43484;43.608;1.458;2023-02-28T11:22:59;7.40;;;4.70;;
49722;SDS011;43484;43.608;1.458;2023-02-28T11:25:32;7.83;;;4.13;;
49722;SDS011;43484;43.608;1.458;2023-02-28T11:28:01;6.03;;;4.53;;
49722;SDS011;43484;43.608;1.458;2023-02-28T11:30:37;5.40;;;3.83;;
49722;SDS011;43484;43.608;1.458;2023-02-28T11:36:00;8.90;;;4.47;;
49722;SDS011;43484;43.608;1.458;2023-02-28T11:38:31;7.97;;;4.43;;
49722;SDS011;43484;43.608;1.458;2023-02-28T11:41:45;5.18;;;4.20;;
49722;SDS011;43484;43.608;1.458;2023-02-28T11:44:00;7.95;;;5.00;;
49722;SDS011;43484;43.608;1.458;2023-02-28T11:49:16;9.27;;;4.60;;
49722;SDS011;43484;43.608;1.458;2023-02-28T11:51:48;7.13;;;4.32;;
49722;SDS011;43484;43.608;1.458;2023-02-28T11:54:34;9.73;;;4.80;;
49722;SDS011;43484;43.608;1.458;2023-02-28T11:57:31;7.43;;;4.53;;
49722;SDS011;43484;43.608;1.458;2023-02-28T12:05:46;4.75;;;3.67;;
49722;SDS011;43484;43.608;1.458;2023-02-28T12:11:06;8.55;;;4.05;;
49722;SDS011;43484;43.608;1.458;2023-02-28T12:16:28;4.68;;;3.83;;
49722;SDS011;43484;43.608;1.458;2023-02-28T12:21:54;6.93;;;3.90;;
49722;SDS011;43484;43.608;1.458;2023-02-28T12:24:38;5.88;;;3.42;;
49722;SDS011;43484;43.608;1.458;2023-02-28T12:27:22;4.20;;;3.63;;
49722;SDS011;43484;43.608;1.458;2023-02-28T12:30:03;5.28;;;3.60;;
49722;SDS011;43484;43.608;1.458;2023-02-28T12:32:34;6.22;;;4.03;;
49722;SDS011;43484;43.608;1.458;2023-02-28T12:37:55;5.65;;;3.88;;
49722;SDS011;43484;43.608;1.458;2023-02-28T12:40:31;5.10;;;4.00;;
49722;SDS011;43484;43.608;1.458;2023-02-28T12:43:08;9.38;;;3.80;;
49722;SDS011;43484;43.608;1.458;2023-02-28T12:45:43;7.25;;;4.32;;
49722;SDS011;43484;43.608;1.458;2023-02-28T12:48:22;6.03;;;4.22;;
49722;SDS011;43484;43.608;1.458;2023-02-28T12:50:53;5.15;;;3.80;;
49722;SDS011;43484;43.608;1.458;2023-02-28T12:53:25;6.35;;;4.32;;
49722;SDS011;43484;43.608;1.458;2023-02-28T13:09:31;5.20;;;3.97;;
49722;SDS011;43484;43.608;1.458;2023-02-28T13:11:58;6.50;;;3.85;;
49722;SDS011;43484;43.608;1.458;2023-02-28T13:14:26;9.13;;;4.80;;
49722;SDS011;43484;43.608;1.458;2023-02-28T13:19:34;5.35;;;3.88;;
49722;SDS011;43484;43.608;1.458;2023-02-28T13:22:03;4.05;;;3.30;;
49722;SDS011;43484;43.608;1.458;2023-02-28T13:27:11;7.28;;;3.58;;
49722;SDS011;43484;43.608;1.458;2023-02-28T13:29:51;6.50;;;3.40;;
49722;SDS011;43484;43.608;1.458;2023-02-28T13:39:51;4.38;;;3.33;;
49722;SDS011;43484;43.608;1.458;2023-02-28T13:42:33;4.22;;;3.72;;
49722;SDS011;43484;43.608;1.458;2023-02-28T13:47:50;4.47;;;3.30;;
49722;SDS011;43484;43.608;1.458;2023-02-28T14:06:51;6.25;;;3.55;;
49722;SDS011;43484;43.608;1.458;2023-02-28T14:09:32;5.32;;;4.30;;
49722;SDS011;43484;43.608;1.458;2023-02-28T14:34:52;7.47;;;3.95;;
49722;SDS011;43484;43.608;1.458;2023-02-28T14:37:30;3.60;;;2.97;;
49722;SDS011;43484;43.608;1.458;2023-02-28T14:40:02;3.53;;;2.92;;
49722;SDS011;43484;43.608;1.458;2023-02-28T14:42:32;6.93;;;3.45;;
49722;SDS011;43484;43.608;1.458;2023-02-28T14:44:59;5.50;;;3.30;;
49722;SDS011;43484;43.608;1.458;2023-02-28T14:47:33;5.03;;;2.97;;
49722;SDS011;43484;43.608;1.458;2023-02-28T14:50:02;6.68;;;3.45;;
49722;SDS011;43484;43.608;1.458;2023-02-28T14:52:31;4.20;;;3.10;;
49722;SDS011;43484;43.608;1.458;2023-02-28T14:55:00;6.65;;;3.22;;
49722;SDS011;43484;43.608;1.458;2023-02-28T14:57:34;3.42;;;2.60;;
49722;SDS011;43484;43.608;1.458;2023-02-28T15:02:52;3.58;;;2.85;;
49722;SDS011;43484;43.608;1.458;2023-02-28T15:05:22;5.53;;;3.17;;
49722;SDS011;43484;43.608;1.458;2023-02-28T15:10:52;8.55;;;3.25;;
49722;SDS011;43484;43.608;1.458;2023-02-28T15:13:19;4.75;;;2.90;;
49722;SDS011;43484;43.608;1.458;2023-02-28T15:15:48;3.45;;;2.70;;
49722;SDS011;43484;43.608;1.458;2023-02-28T15:21:12;4.22;;;2.85;;
49722;SDS011;43484;43.608;1.458;2023-02-28T15:23:45;6.07;;;2.95;;
49722;SDS011;43484;43.608;1.458;2023-02-28T15:26:16;5.28;;;3.40;;
49722;SDS011;43484;43.608;1.458;2023-02-28T15:28:45;6.30;;;3.13;;
49722;SDS011;43484;43.608;1.458;2023-02-28T15:31:23;3.67;;;2.92;;
49722;SDS011;43484;43.608;1.458;2023-02-28T15:34:06;4.65;;;3.40;;
49722;SDS011;43484;43.608;1.458;2023-02-28T15:36:34;5.20;;;3.03;;
49722;SDS011;43484;43.608;1.458;2023-02-28T15:39:18;3.75;;;2.75;;
49722;SDS011;43484;43.608;1.458;2023-02-28T15:41:49;5.30;;;3.05;;
49722;SDS011;43484;43.608;1.458;2023-02-28T15:47:01;3.95;;;2.95;;
49722;SDS011;43484;43.608;1.458;2023-02-28T15:49:34;5.22;;;2.47;;
49722;SDS011;43484;43.608;1.458;2023-02-28T15:52:28;3.67;;;2.55;;
49722;SDS011;43484;43.608;1.458;2023-02-28T15:55:08;6.10;;;3.05;;
49722;SDS011;43484;43.608;1.458;2023-02-28T15:57:48;5.32;;;3.15;;
49722;SDS011;43484;43.608;1.458;2023-02-28T16:00:21;3.60;;;3.30;;
49722;SDS011;43484;43.608;1.458;2023-02-28T16:02:49;4.63;;;2.80;;
49722;SDS011;43484;43.608;1.458;2023-02-28T16:08:06;4.28;;;2.75;;
49722;SDS011;43484;43.608;1.458;2023-02-28T16:10:39;8.90;;;3.58;;
49722;SDS011;43484;43.608;1.458;2023-02-28T16:13:06;5.68;;;3.03;;
49722;SDS011;43484;43.608;1.458;2023-02-28T16:15:41;4.28;;;3.13;;
49722;SDS011;43484;43.608;1.458;2023-02-28T16:18:12;3.05;;;2.55;;
49722;SDS011;43484;43.608;1.458;2023-02-28T16:20:40;6.88;;;3.45;;
49722;SDS011;43484;43.608;1.458;2023-02-28T16:23:07;6.80;;;3.13;;
49722;SDS011;43484;43.608;1.458;2023-02-28T16:25:42;4.47;;;3.13;;
49722;SDS011;43484;43.608;1.458;2023-02-28T16:28:20;4.03;;;2.90;;
49722;SDS011;43484;43.608;1.458;2023-02-28T16:30:53;5.00;;;2.78;;
49722;SDS011;43484;43.608;1.458;2023-02-28T16:33:20;10.43;;;3.00;;
49722;SDS011;43484;43.608;1.458;2023-02-28T16:35:46;5.55;;;3.15;;
49722;SDS011;43484;43.608;1.458;2023-02-28T16:38:13;4.85;;;3.03;;
49722;SDS011;43484;43.608;1.458;2023-02-28T16:40:39;7.05;;;3.10;;
49722;SDS011;43484;43.608;1.458;2023-02-28T16:43:08;5.03;;;2.90;;
49722;SDS011;43484;43.608;1.458;2023-02-28T16:45:41;4.72;;;3.10;;
49722;SDS011;43484;43.608;1.458;2023-02-28T16:48:12;5.47;;;3.25;;
49722;SDS011;43484;43.608;1.458;2023-02-28T16:50:41;5.25;;;3.05;;
49722;SDS011;43484;43.608;1.458;2023-02-28T16:53:10;3.50;;;2.97;;
49722;SDS011;43484;43.608;1.458;2023-02-28T16:55:37;4.35;;;3.50;;
49722;SDS011;43484;43.608;1.458;2023-02-28T16:58:04;4.93;;;3.40;;
49722;SDS011;43484;43.608;1.458;2023-02-28T17:00:31;7.68;;;5.07;;
49722;SDS011;43484;43.608;1.458;2023-02-28T17:02:59;7.20;;;4.15;;
49722;SDS011;43484;43.608;1.458;2023-02-28T17:05:26;6.53;;;3.70;;
49722;SDS011;43484;43.608;1.458;2023-02-28T17:07:59;7.30;;;3.75;;
49722;SDS011;43484;43.608;1.458;2023-02-28T17:10:26;5.50;;;3.80;;
49722;SDS011;43484;43.608;1.458;2023-02-28T17:12:53;11.05;;;4.03;;
49722;SDS011;43484;43.608;1.458;2023-02-28T17:15:28;7.13;;;4.10;;
49722;SDS011;43484;43.608;1.458;2023-02-28T17:17:55;7.07;;;3.83;;
49722;SDS011;43484;43.608;1.458;2023-02-28T17:20:22;7.68;;;3.72;;
49722;SDS011;43484;43.608;1.458;2023-02-28T17:22:49;8.80;;;4.30;;
49722;SDS011;43484;43.608;1.458;2023-02-28T17:25:17;5.53;;;4.03;;
49722;SDS011;43484;43.608;1.458;2023-02-28T17:27:44;5.95;;;3.80;;
49722;SDS011;43484;43.608;1.458;2023-02-28T17:30:19;8.77;;;3.78;;
49722;SDS011;43484;43.608;1.458;2023-02-28T17:32:50;6.93;;;4.47;;
49722;SDS011;43484;43.608;1.458;2023-02-28T17:35:17;9.25;;;3.97;;
49722;SDS011;43484;43.608;1.458;2023-02-28T17:37:44;5.13;;;3.63;;
49722;SDS011;43484;43.608;1.458;2023-02-28T17:40:15;6.60;;;3.80;;
49722;SDS011;43484;43.608;1.458;2023-02-28T17:42:45;4.78;;;3.47;;
49722;SDS011;43484;43.608;1.458;2023-02-28T17:45:13;4.28;;;3.85;;
49722;SDS011;43484;43.608;1.458;2023-02-28T17:47:41;4.93;;;3.65;;
49722;SDS011;43484;43.608;1.458;2023-02-28T17:50:16;6.45;;;3.25;;
49722;SDS011;43484;43.608;1.458;2023-02-28T17:52:44;5.60;;;3.20;;
49722;SDS011;43484;43.608;1.458;2023-02-28T17:55:12;4.70;;;3.13;;